createdAt,value
2024-05-09T00:00:22.033Z,74.49
2024-05-09T00:02:52.812Z,74.40
2024-05-09T00:05:19.260Z,74.10
2024-05-09T00:07:45.698Z,74.85
2024-05-09T00:10:22.064Z,75.35
2024-05-09T00:12:54.941Z,74.57
2024-05-09T00:15:21.204Z,74.41
2024-05-09T00:17:47.655Z,73.98
2024-05-09T00:20:17.862Z,76.24
2024-05-09T00:22:50.402Z,75.50
2024-05-09T00:25:16.757Z,75.13
2024-05-09T00:27:43.017Z,74.86
2024-05-09T00:30:14.350Z,75.23
2024-05-09T00:32:43.909Z,75.43
2024-05-09T00:35:10.300Z,75.61
2024-05-09T00:37:36.608Z,75.25
2024-05-09T00:40:03.543Z,75.79
2024-05-09T00:42:29.899Z,75.06
2024-05-09T00:44:56.192Z,75.62
2024-05-09T00:47:22.723Z,75.97
2024-05-09T00:49:49.238Z,74.81
2024-05-09T00:52:15.658Z,75.54
2024-05-09T00:54:41.934Z,75.58
2024-05-09T00:57:08.234Z,74.49
2024-05-09T00:59:34.651Z,74.77
2024-05-09T01:02:01.068Z,75.45
2024-05-09T01:04:27.476Z,75.58
2024-05-09T01:06:53.743Z,75.17
2024-05-09T01:09:20.033Z,76.52
2024-05-09T01:11:46.501Z,74.98
2024-05-09T01:14:12.847Z,76.30
2024-05-09T01:16:39.134Z,75.89
2024-05-09T01:19:05.509Z,76.39
2024-05-09T01:21:31.855Z,76.68
2024-05-09T01:23:58.135Z,75.88
2024-05-09T01:26:24.461Z,75.02
2024-05-09T01:28:50.848Z,76.89
2024-05-09T01:31:17.159Z,75.75
2024-05-09T01:33:43.602Z,77.35
2024-05-09T01:36:09.944Z,76.00
2024-05-09T01:38:36.323Z,75.49
2024-05-09T01:41:02.761Z,76.60
2024-05-09T01:43:29.071Z,76.51
2024-05-09T01:45:55.359Z,76.70
2024-05-09T01:48:21.881Z,76.80
2024-05-09T01:50:48.271Z,77.18
2024-05-09T01:53:15.280Z,77.18
2024-05-09T01:55:41.794Z,77.89
2024-05-09T01:58:08.062Z,75.40
2024-05-09T02:00:39.611Z,76.88
2024-05-09T02:03:08.630Z,76.77
2024-05-09T02:05:35.341Z,77.71
2024-05-09T02:08:01.718Z,75.82
2024-05-09T02:21:51.073Z,78.91
2024-05-09T02:24:17.353Z,78.76
2024-05-09T02:26:43.628Z,77.90
2024-05-09T02:29:10.018Z,78.13
2024-05-09T02:31:36.317Z,77.02
2024-05-09T02:34:02.760Z,76.17
2024-05-09T02:36:29.146Z,78.00
2024-05-09T02:38:55.421Z,76.86
2024-05-09T02:41:21.787Z,77.96
2024-05-09T02:43:48.096Z,76.40
2024-05-09T02:46:14.360Z,77.50
2024-05-09T02:48:40.732Z,76.92
2024-05-09T02:51:07.256Z,78.11
2024-05-09T02:53:33.771Z,79.03
2024-05-09T02:56:00.310Z,77.06
2024-05-09T02:58:26.607Z,77.45
2024-05-09T03:00:52.964Z,76.62
2024-05-09T03:03:19.579Z,77.51
2024-05-09T03:05:46.597Z,77.79
2024-05-09T03:08:13.345Z,76.83
2024-05-09T03:10:39.968Z,77.06
2024-05-09T03:13:06.346Z,76.92
2024-05-09T03:15:32.599Z,77.82
2024-05-09T03:17:58.989Z,77.04
2024-05-09T03:20:32.426Z,75.71
2024-05-09T03:23:01.047Z,76.47
2024-05-09T03:25:27.398Z,76.42
2024-05-09T03:27:53.655Z,77.53
2024-05-09T03:30:26.200Z,77.12
2024-05-09T03:33:01.948Z,77.15
2024-05-09T03:35:28.391Z,78.68
2024-05-09T03:37:54.693Z,78.44
2024-05-09T03:40:26.084Z,77.26
2024-05-09T03:42:53.082Z,75.98
2024-05-09T03:45:19.348Z,76.89
2024-05-09T03:47:45.896Z,77.33
2024-05-09T03:50:18.490Z,77.60
2024-05-09T03:52:52.255Z,78.43
2024-05-09T03:55:18.555Z,76.20
2024-05-09T03:57:44.856Z,74.78
2024-05-09T04:00:17.676Z,77.76
2024-05-09T04:02:49.092Z,76.76
2024-05-09T04:05:15.569Z,77.37
2024-05-09T04:07:41.853Z,77.82
2024-05-09T04:10:11.256Z,78.47
2024-05-09T04:12:43.199Z,77.26
2024-05-09T04:15:12.874Z,78.21
2024-05-09T04:17:39.954Z,77.22
2024-05-09T04:20:08.375Z,77.22
2024-05-09T04:22:34.807Z,78.39
2024-05-09T04:25:01.077Z,78.20
2024-05-09T04:27:27.379Z,76.98
2024-05-09T04:29:53.646Z,75.88
2024-05-09T04:32:19.991Z,77.35
2024-05-09T04:34:46.356Z,75.21
2024-05-09T04:37:12.806Z,75.77
2024-05-09T04:39:39.108Z,76.38
2024-05-09T04:42:05.373Z,75.97
2024-05-09T04:44:31.679Z,76.47
2024-05-09T04:46:58.036Z,76.29
2024-05-09T04:49:24.468Z,76.26
2024-05-09T04:51:50.849Z,76.70
2024-05-09T04:54:26.464Z,75.93
2024-05-09T04:57:00.292Z,75.48
2024-05-09T04:59:26.689Z,74.84
2024-05-09T05:01:53.119Z,74.90
2024-05-09T05:04:19.568Z,75.46
2024-05-09T05:06:45.871Z,75.81
2024-05-09T05:09:12.168Z,74.66
2024-05-09T05:11:38.529Z,76.01
2024-05-09T05:14:04.895Z,74.39
2024-05-09T05:16:31.200Z,74.97
2024-05-09T05:18:57.502Z,75.17
2024-05-09T05:21:23.984Z,74.93
2024-05-09T05:23:50.353Z,74.05
2024-05-09T05:26:16.723Z,74.91
2024-05-09T05:28:43.046Z,75.37
2024-05-09T05:31:09.436Z,74.92
2024-05-09T05:33:35.815Z,74.99
2024-05-09T05:36:02.149Z,74.70
2024-05-09T05:38:28.881Z,74.86
2024-05-09T05:40:55.356Z,74.95
2024-05-09T05:43:21.828Z,74.55
2024-05-09T05:45:48.165Z,74.53
2024-05-09T05:48:14.576Z,74.74
2024-05-09T05:50:41.007Z,74.61
2024-05-09T05:53:08.286Z,74.74
2024-05-09T05:55:35.178Z,75.01
2024-05-09T05:58:01.483Z,74.21
2024-05-09T06:00:34.459Z,73.85
2024-05-09T06:03:04.560Z,73.80
2024-05-09T06:05:30.985Z,74.13
2024-05-09T06:07:57.361Z,74.08
2024-05-09T06:10:29.645Z,73.24
2024-05-09T06:13:01.225Z,73.48
2024-05-09T06:15:27.500Z,72.79
2024-05-09T06:17:54.145Z,72.77
2024-05-09T06:20:27.387Z,73.54
2024-05-09T06:23:01.074Z,72.46
2024-05-09T06:25:27.330Z,71.91
2024-05-09T06:27:53.603Z,72.50
2024-05-09T06:30:26.287Z,72.66
2024-05-09T06:33:01.585Z,72.38
2024-05-09T06:35:28.092Z,72.10
2024-05-09T06:37:54.586Z,71.82
2024-05-09T06:40:25.735Z,71.41
2024-05-09T06:43:00.287Z,71.38
2024-05-09T06:45:26.539Z,71.13
2024-05-09T06:47:53.123Z,72.01
2024-05-09T06:50:24.021Z,71.93
2024-05-09T06:52:54.292Z,71.55
2024-05-09T06:55:20.577Z,71.21
2024-05-09T06:57:46.852Z,70.35
2024-05-09T07:00:19.160Z,70.31
2024-05-09T07:02:53.772Z,70.88
2024-05-09T07:05:20.240Z,69.96
2024-05-09T07:07:46.625Z,70.54
2024-05-09T07:10:18.081Z,69.96
2024-05-09T07:12:51.449Z,70.22
2024-05-09T07:15:17.702Z,70.30
2024-05-09T07:17:44.064Z,69.89
2024-05-09T07:20:16.186Z,69.12
2024-05-09T07:22:46.317Z,68.05
2024-05-09T07:25:12.688Z,68.19
2024-05-09T07:27:38.967Z,68.22
2024-05-09T07:30:07.141Z,67.85
2024-05-09T07:32:33.657Z,67.49
2024-05-09T07:35:00.205Z,66.98
2024-05-09T07:37:26.588Z,67.31
2024-05-09T07:39:52.846Z,66.29
2024-05-09T07:42:19.121Z,66.40
2024-05-09T07:44:45.387Z,66.16
2024-05-09T07:48:27.583Z,64.92
2024-05-09T07:53:32.365Z,64.67
2024-05-09T07:55:13.448Z,63.67
2024-05-09T07:57:39.875Z,64.20
2024-05-09T08:00:06.755Z,62.97
2024-05-09T08:02:33.272Z,62.94
2024-05-09T08:04:59.687Z,62.32
2024-05-09T08:07:26.017Z,61.48
2024-05-09T08:09:52.324Z,59.85
2024-05-09T08:12:18.651Z,60.89
2024-05-09T08:14:44.975Z,58.37
2024-05-09T08:17:11.302Z,55.96
2024-05-09T08:19:37.682Z,55.13
2024-05-09T08:22:04.074Z,55.44
2024-05-09T08:24:30.564Z,53.48
2024-05-09T08:26:56.891Z,48.10
2024-05-09T08:29:23.168Z,49.77
2024-05-09T08:31:49.507Z,49.54
2024-05-09T08:34:16.047Z,48.96
2024-05-09T08:36:42.473Z,48.91
2024-05-09T08:39:08.796Z,46.64
2024-05-09T08:41:35.124Z,44.82
2024-05-09T08:44:01.422Z,47.06
2024-05-09T08:46:27.909Z,45.41
2024-05-09T08:48:54.528Z,46.25
2024-05-09T08:51:20.847Z,44.01
2024-05-09T08:53:47.136Z,44.55
2024-05-09T08:56:13.437Z,44.93
2024-05-09T08:58:39.704Z,43.19
2024-05-09T09:01:06.068Z,45.07
2024-05-09T10:00:21.127Z,39.11
2024-05-09T10:02:53.196Z,38.66
2024-05-09T10:05:19.567Z,38.17
2024-05-09T10:07:45.895Z,36.92
2024-05-09T10:10:16.233Z,37.55
2024-05-09T10:12:42.738Z,37.63
2024-05-09T10:15:09.020Z,37.58
2024-05-09T10:17:35.444Z,36.61
2024-05-09T10:20:01.809Z,38.04
2024-05-09T10:22:28.117Z,36.10
2024-05-09T10:24:54.573Z,35.62
2024-05-09T10:27:20.895Z,35.09
2024-05-09T10:29:47.158Z,36.71
2024-05-09T10:32:13.427Z,39.72
2024-05-09T10:34:39.748Z,41.16
2024-05-09T10:37:06.138Z,40.87
2024-05-09T10:39:32.478Z,40.02
2024-05-09T10:41:58.782Z,41.21
2024-05-09T10:44:25.097Z,40.71
2024-05-09T10:46:51.370Z,40.50
2024-05-09T10:49:17.890Z,41.05
2024-05-09T10:51:44.420Z,39.95
2024-05-09T10:54:10.740Z,40.86
2024-05-09T10:56:37.017Z,40.79
2024-05-09T10:59:03.288Z,40.26
2024-05-09T11:01:29.676Z,40.53
2024-05-09T11:03:56.251Z,38.93
2024-05-09T11:06:22.637Z,39.27
2024-05-09T11:08:48.911Z,39.36
2024-05-09T11:11:15.259Z,39.11
2024-05-09T11:13:41.600Z,39.38
2024-05-09T11:16:08.004Z,38.94
2024-05-09T11:18:37.931Z,38.54
2024-05-09T11:21:05.458Z,38.66
2024-05-09T11:23:31.759Z,39.47
2024-05-09T11:25:58.050Z,38.46
2024-05-09T11:28:24.371Z,38.43
2024-05-09T11:30:50.651Z,37.04
2024-05-09T11:33:16.982Z,38.12
2024-05-09T11:35:43.273Z,36.09
2024-05-09T11:38:09.542Z,35.78
2024-05-09T11:40:35.845Z,35.37
2024-05-09T11:43:02.199Z,36.49
2024-05-09T11:45:28.588Z,35.90
2024-05-09T11:47:54.968Z,37.50
2024-05-09T11:50:27.216Z,37.50
2024-05-09T11:52:58.729Z,38.79
2024-05-09T11:55:27.553Z,38.94
2024-05-09T11:57:54.762Z,38.32
2024-05-09T12:00:29.280Z,38.74
2024-05-09T12:03:02.502Z,37.57
2024-05-09T12:05:29.189Z,37.94
2024-05-09T12:07:55.658Z,38.12
2024-05-09T12:10:26.270Z,37.88
2024-05-09T12:12:58.463Z,39.07
2024-05-09T12:15:24.827Z,39.39
2024-05-09T12:17:51.338Z,39.14
2024-05-09T12:20:25.773Z,39.26
2024-05-09T12:22:59.347Z,40.35
2024-05-09T12:25:25.684Z,40.37
2024-05-09T12:27:52.041Z,39.31
2024-05-09T12:30:28.836Z,40.63
2024-05-09T12:33:02.458Z,40.29
2024-05-09T12:35:28.790Z,40.67
2024-05-09T12:37:55.067Z,38.24
2024-05-09T12:40:30.707Z,37.04
2024-05-09T12:43:01.379Z,37.11
2024-05-09T12:45:27.676Z,37.19
2024-05-09T12:47:54.108Z,35.36
2024-05-09T12:50:29.146Z,34.41
2024-05-09T12:52:58.319Z,35.75
2024-05-09T12:55:24.628Z,34.86
2024-05-09T12:57:50.942Z,34.96
2024-05-09T13:00:23.978Z,35.54
2024-05-09T13:02:57.379Z,34.60
2024-05-09T13:05:24.022Z,33.76
2024-05-09T13:07:50.573Z,34.67
2024-05-09T13:10:25.517Z,33.70
2024-05-09T13:12:57.779Z,33.07
2024-05-09T13:15:24.151Z,32.40
2024-05-09T13:17:50.509Z,32.85
2024-05-09T13:20:25.732Z,33.25
2024-05-09T13:22:55.841Z,32.82
2024-05-09T13:25:22.111Z,32.41
2024-05-09T13:27:48.466Z,33.55
2024-05-09T13:30:21.899Z,33.52
2024-05-09T13:32:55.514Z,31.62
2024-05-09T13:35:21.868Z,32.29
2024-05-09T13:37:48.192Z,31.65
2024-05-09T13:40:14.625Z,31.06
2024-05-09T13:42:41.018Z,31.38
2024-05-09T13:45:07.304Z,30.05
2024-05-09T13:47:33.672Z,30.17
2024-05-09T13:50:00.173Z,30.23
2024-05-09T13:52:26.496Z,30.02
2024-05-09T13:54:52.800Z,30.20
2024-05-09T13:57:19.148Z,30.32
2024-05-09T13:59:45.401Z,29.87
2024-05-09T14:02:11.821Z,30.01
2024-05-09T14:04:38.370Z,30.61
2024-05-09T14:07:04.910Z,32.32
2024-05-09T14:09:31.268Z,32.12
2024-05-09T14:11:57.614Z,31.54
2024-05-09T14:14:24.007Z,32.39
2024-05-09T14:16:50.362Z,32.33
2024-05-09T14:19:16.848Z,31.56
2024-05-09T14:21:43.322Z,32.11
2024-05-09T14:24:09.624Z,32.39
2024-05-09T14:26:35.879Z,30.24
2024-05-09T14:29:02.254Z,31.10
2024-05-09T14:31:28.709Z,30.28
2024-05-09T14:33:55.197Z,31.15
2024-05-09T14:36:21.714Z,31.02
2024-05-09T14:38:47.976Z,31.50
2024-05-09T14:41:14.252Z,30.87
2024-05-09T14:43:40.744Z,31.37
2024-05-09T14:46:07.181Z,30.10
2024-05-09T14:48:33.660Z,30.78
2024-05-09T14:51:00.110Z,31.22
2024-05-09T14:53:26.387Z,30.73
2024-05-09T14:55:52.707Z,29.19
2024-05-09T14:58:19.280Z,30.42
2024-05-09T15:00:49.573Z,29.59
2024-05-09T15:03:17.526Z,29.09
2024-05-09T15:05:44.000Z,29.87
2024-05-09T15:08:10.358Z,29.41
2024-05-09T15:10:37.556Z,29.62
2024-05-09T15:13:04.510Z,30.31
2024-05-09T15:15:31.191Z,29.85
2024-05-09T15:17:57.753Z,30.17
2024-05-09T15:20:31.448Z,30.15
2024-05-09T15:23:01.756Z,29.89
2024-05-09T15:25:28.100Z,29.53
2024-05-09T15:27:54.433Z,29.27
2024-05-09T15:30:27.577Z,29.86
2024-05-09T15:32:56.616Z,29.06
2024-05-09T15:35:22.976Z,29.68
2024-05-09T15:37:49.225Z,29.80
2024-05-09T15:40:25.848Z,29.92
2024-05-09T15:43:01.301Z,30.36
2024-05-09T15:45:27.642Z,29.88
2024-05-09T15:47:54.018Z,30.08
2024-05-09T15:50:28.573Z,29.93
2024-05-09T15:53:02.435Z,28.73
2024-05-09T15:55:28.738Z,28.71
2024-05-09T15:57:55.054Z,28.80
2024-05-09T16:00:28.750Z,28.72
2024-05-09T16:03:02.480Z,28.51
2024-05-09T16:05:28.912Z,28.16
2024-05-09T16:07:55.318Z,27.41
2024-05-09T16:10:25.963Z,28.29
2024-05-09T16:12:57.920Z,28.94
2024-05-09T16:15:24.211Z,29.04
2024-05-09T16:17:50.652Z,29.22
2024-05-09T16:20:26.389Z,28.02
2024-05-09T16:23:00.773Z,27.85
2024-05-09T16:25:27.064Z,29.37
2024-05-09T16:27:53.490Z,29.01
2024-05-09T16:30:27.840Z,29.65
2024-05-09T16:33:00.404Z,30.00
2024-05-09T16:35:26.800Z,29.61
2024-05-09T16:37:53.174Z,29.23
2024-05-09T16:40:29.288Z,29.84
2024-05-09T16:43:01.040Z,30.27
2024-05-09T16:45:27.343Z,31.22
2024-05-09T16:47:53.718Z,31.51
2024-05-09T16:50:26.423Z,31.04
2024-05-09T16:52:57.724Z,31.45
2024-05-09T16:55:24.181Z,31.83
2024-05-09T16:57:50.610Z,31.90
2024-05-09T17:00:25.539Z,32.63
2024-05-09T17:02:58.177Z,33.13
2024-05-09T17:05:24.756Z,33.18
2024-05-09T17:07:51.267Z,33.29
2024-05-09T17:10:26.470Z,34.63
2024-05-09T17:12:58.441Z,34.97
2024-05-09T17:15:24.735Z,35.86
2024-05-09T17:17:51.068Z,35.62
2024-05-09T17:20:28.833Z,35.54
2024-05-09T17:22:59.684Z,36.46
2024-05-09T17:25:25.959Z,37.36
2024-05-09T17:27:52.276Z,37.85
2024-05-09T17:30:28.320Z,38.21
2024-05-09T17:32:58.974Z,39.06
2024-05-09T17:35:28.385Z,38.94
2024-05-09T17:37:54.679Z,39.43
2024-05-09T17:40:30.084Z,39.31
2024-05-09T17:42:59.757Z,39.41
2024-05-09T17:45:26.084Z,38.98
2024-05-09T17:47:52.496Z,39.45
2024-05-09T17:50:27.249Z,39.61
2024-05-09T17:53:00.021Z,39.24
2024-05-09T17:55:26.392Z,39.79
2024-05-09T17:57:52.747Z,40.32
2024-05-09T18:00:28.772Z,41.07
2024-05-09T18:03:03.105Z,40.01
2024-05-09T18:05:29.553Z,39.78
2024-05-09T18:07:55.900Z,39.17
2024-05-09T18:10:26.166Z,39.29
2024-05-09T18:12:59.404Z,39.02
2024-05-09T18:15:25.735Z,39.27
2024-05-09T18:17:52.245Z,38.76
2024-05-09T18:20:28.610Z,39.38
2024-05-09T18:23:03.755Z,39.80
2024-05-09T18:25:30.029Z,40.08
2024-05-09T18:27:56.391Z,40.21
2024-05-09T18:30:28.286Z,40.06
2024-05-09T18:33:00.670Z,40.49
2024-05-09T18:35:27.090Z,41.00
2024-05-09T18:37:53.350Z,41.12
2024-05-09T18:40:27.338Z,41.51
2024-05-09T18:42:57.693Z,41.57
2024-05-09T18:45:24.032Z,42.27
2024-05-09T18:47:50.336Z,41.63
2024-05-09T18:50:24.704Z,42.24
2024-05-09T18:52:58.482Z,43.44
2024-05-09T18:55:24.791Z,43.10
2024-05-09T18:57:51.126Z,44.43
2024-05-09T19:00:30.864Z,44.46
2024-05-09T19:03:01.873Z,45.74
2024-05-09T19:05:28.478Z,46.24
2024-05-09T19:07:54.943Z,47.55
2024-05-09T19:10:23.065Z,48.83
2024-05-09T19:12:52.615Z,48.52
2024-05-09T19:15:18.929Z,50.14
2024-05-09T19:17:45.242Z,49.90
2024-05-09T19:20:20.620Z,50.20
2024-05-09T19:22:54.776Z,50.85
2024-05-09T19:25:21.225Z,51.05
2024-05-09T19:27:47.563Z,52.40
2024-05-09T19:30:24.938Z,52.06
2024-05-09T19:32:59.820Z,51.46
2024-05-09T19:35:26.137Z,52.79
2024-05-09T19:37:52.442Z,52.86
2024-05-09T19:40:25.106Z,52.92
2024-05-09T19:42:57.345Z,53.59
2024-05-09T19:45:23.660Z,54.91
2024-05-09T19:47:49.993Z,54.07
2024-05-09T19:50:23.073Z,54.76
2024-05-09T19:52:57.815Z,55.45
2024-05-09T19:55:24.180Z,56.54
2024-05-09T19:57:50.530Z,56.34
2024-05-09T20:00:22.222Z,56.85
2024-05-09T20:02:55.463Z,56.46
2024-05-09T20:05:22.055Z,57.00
2024-05-09T20:07:48.443Z,56.76
2024-05-09T20:10:23.248Z,58.70
2024-05-09T20:12:52.894Z,57.72
2024-05-09T20:15:19.194Z,57.65
2024-05-09T20:17:45.574Z,58.25
2024-05-09T20:20:20.299Z,58.77
2024-05-09T20:22:54.501Z,59.88
2024-05-09T20:25:20.925Z,60.20
2024-05-09T20:27:47.244Z,60.56
2024-05-09T20:30:20.898Z,59.60
2024-05-09T20:32:51.521Z,60.07
2024-05-09T20:35:17.838Z,61.02
2024-05-09T20:37:44.124Z,59.94
2024-05-09T20:40:18.136Z,60.76
2024-05-09T20:42:51.218Z,61.73
2024-05-09T20:45:17.506Z,61.17
2024-05-09T20:47:43.902Z,60.71
2024-05-09T20:50:20.196Z,62.17
2024-05-09T20:52:54.524Z,62.60
2024-05-09T20:55:20.891Z,62.72
2024-05-09T20:57:47.287Z,62.13
2024-05-09T21:00:18.697Z,62.21
2024-05-09T21:02:48.582Z,61.91
2024-05-09T21:05:15.239Z,62.68
2024-05-09T21:07:41.618Z,63.26
2024-05-09T21:10:15.281Z,63.43
2024-05-09T21:12:45.769Z,63.77
2024-05-09T21:15:12.073Z,63.26
2024-05-09T21:17:38.394Z,63.25
2024-05-09T21:20:09.417Z,63.12
2024-05-09T21:22:40.625Z,64.10
2024-05-09T21:25:06.948Z,64.64
2024-05-09T21:27:33.298Z,64.17
2024-05-09T21:29:59.675Z,64.37
2024-05-09T21:32:26.123Z,63.94
2024-05-09T21:34:52.578Z,64.17
2024-05-09T21:37:18.919Z,64.59
2024-05-09T21:39:45.320Z,64.79
2024-05-09T21:42:11.657Z,64.37
2024-05-09T21:44:37.924Z,65.55
2024-05-09T21:47:04.266Z,66.40
2024-05-09T21:49:30.804Z,66.40
2024-05-09T21:51:57.179Z,66.27
2024-05-09T21:54:23.460Z,66.18
2024-05-09T21:56:49.723Z,65.93
2024-05-09T21:59:16.000Z,66.21
2024-05-09T22:01:42.414Z,66.70
2024-05-09T22:04:08.842Z,66.07
2024-05-09T22:06:35.283Z,66.36
2024-05-09T22:09:01.580Z,67.28
2024-05-09T22:11:27.874Z,66.71
2024-05-09T22:13:54.159Z,67.11
2024-05-09T22:16:20.447Z,68.35
2024-05-09T22:18:46.880Z,67.41
2024-05-09T22:21:13.217Z,68.58
2024-05-09T22:23:39.483Z,68.90
2024-05-09T22:26:05.765Z,69.04
2024-05-09T22:28:32.127Z,68.39
2024-05-09T22:30:58.489Z,68.70
2024-05-09T22:33:24.924Z,69.46
2024-05-09T22:35:51.344Z,69.95
2024-05-09T22:38:17.655Z,69.05
2024-05-09T22:40:48.358Z,69.34
2024-05-09T22:43:16.268Z,69.10
2024-05-09T22:45:42.695Z,69.24
2024-05-09T22:48:09.400Z,69.38
2024-05-09T22:50:36.037Z,69.51
2024-05-09T22:53:02.428Z,68.78
2024-05-09T22:55:28.843Z,68.86
2024-05-09T22:57:55.345Z,69.79
2024-05-09T23:00:29.421Z,69.39
2024-05-09T23:02:58.319Z,69.67
2024-05-09T23:05:24.771Z,70.32
2024-05-09T23:07:51.099Z,69.55
2024-05-09T23:10:24.965Z,69.83
2024-05-09T23:12:58.450Z,69.98
2024-05-09T23:15:24.765Z,69.22
2024-05-09T23:17:51.116Z,69.52
2024-05-09T23:20:25.910Z,69.83
2024-05-09T23:22:56.389Z,70.05
2024-05-09T23:25:22.798Z,70.36
2024-05-09T23:27:49.121Z,70.65
2024-05-09T23:30:25.381Z,70.23
2024-05-09T23:32:55.755Z,70.90
2024-05-09T23:35:22.060Z,70.46
2024-05-09T23:37:48.328Z,69.21
2024-05-09T23:40:18.744Z,70.72
2024-05-09T23:42:48.991Z,70.69
2024-05-09T23:45:15.345Z,71.23
2024-05-09T23:47:41.855Z,71.56
2024-05-09T23:50:16.242Z,70.83
2024-05-09T23:52:46.682Z,70.70
2024-05-09T23:55:13.109Z,70.41
2024-05-09T23:57:39.505Z,71.93
